OIHH  Hamadan  Airport

Hamadan, Iran

Add Bookmark
ICAO OIHH
IATA HDM
Type Airport
Status Operational
Latitude
34° 52' 9" N
34.869202
Longitude
48° 33' 9" E
48.552502
Local (GMT +4.5 ) UTC
May 25, 2016 07:50 am May 25, 2016 03:20
Sunrise-Sunset Local UTC
Begin Civil Twilight 05:35 am 01:05
Sunrise 06:04 am 01:34
Sunset 08:21 pm 15:51
End Civil Twilight 08:49 pm 16:19
VFR
VFR
MVFR
MVFR
IFR
IFR
LIFR
LIFR
Unknown
Unavailable

Current Weather

METAR Observed
OIHH 250150Z AUTO 36012KT //// // ////// 10/02 Q1014 Wed, May 25, 2016 @ 01:50 UTC
(1 Hour, 30 Minutes ago)
Wind Conditions
360° at 12 knots (22 kph)
  • No significant weather
Temperatures Readings Precipitation
Current Temp
10°C
50°F
Dewpoint
2°C
36°F
Humidity 58%
Altimeter 29.94" Hg
Sea Level Pressure 1,014 mb
Field Elevation
1,757 m
5,764 ft
None Recorded

Additional weather within a 92.6km radius of OIHH

Map ICAO Location
OIHM 69.5km S/SE (160°)
VFR
VFR
MVFR
MVFR
IFR
IFR
LIFR
LIFR
Unknown
Unavailable
-
-

CheckWX.com is intended as a tool to help pilots better visualize weather data. It is not intended as a substitute for an official weather briefing obtained from a Flight Service Station. CheckWX.com does not meet the FAA requirements for an official pre-flight weather briefing. Therefore, it's important that pilots still call and obtain an official FSS pre-flight weather briefing.

© 2007-2016 CheckWX.com
03:20:21 UTC